createdAt,value
2018-04-16T00:00:56.475Z,99.90
2018-04-16T00:03:22.977Z,99.90
2018-04-16T00:05:49.475Z,99.90
2018-04-16T00:08:15.971Z,99.90
2018-04-16T00:10:42.472Z,99.90
2018-04-16T00:13:09.995Z,99.90
2018-04-16T00:15:36.511Z,99.90
2018-04-16T00:18:03.084Z,99.90
2018-04-16T00:20:29.783Z,99.90
2018-04-16T00:22:57.564Z,99.90
2018-04-16T00:25:24.007Z,99.90
2018-04-16T00:27:50.768Z,99.90
2018-04-16T00:30:18.177Z,99.90
2018-04-16T00:32:50.680Z,99.90
2018-04-16T00:35:23.434Z,99.90
2018-04-16T00:37:55.866Z,99.90
2018-04-16T00:40:28.368Z,99.90
2018-04-16T00:43:00.959Z,99.90
2018-04-16T00:45:34.499Z,99.90
2018-04-16T00:48:06.934Z,99.90
2018-04-16T00:50:39.540Z,99.90
2018-04-16T00:53:12.065Z,99.90
2018-04-16T00:55:44.616Z,99.90
2018-04-16T00:58:17.860Z,99.90
2018-04-16T01:00:50.504Z,99.90
2018-04-16T01:03:23.848Z,99.90
2018-04-16T01:05:56.294Z,99.90
2018-04-16T01:08:28.677Z,99.90
2018-04-16T01:11:01.365Z,99.90
2018-04-16T01:13:33.733Z,99.90
2018-04-16T01:16:06.362Z,99.90
2018-04-16T01:21:39.921Z,99.90
2018-04-16T01:24:12.285Z,99.90
2018-04-16T01:26:45.456Z,99.90
2018-04-16T01:29:18.630Z,99.90
2018-04-16T01:31:51.680Z,99.90
2018-04-16T01:34:24.323Z,99.90
2018-04-16T01:40:00.962Z,99.90
2018-04-16T01:42:33.496Z,99.90
2018-04-16T01:45:06.580Z,99.90
2018-04-16T01:47:39.257Z,99.90
2018-04-16T01:50:12.506Z,99.90
2018-04-16T01:52:45.834Z,99.90
2018-04-16T01:55:18.307Z,99.90
2018-04-16T01:57:50.904Z,99.90
2018-04-16T02:00:23.358Z,99.90
2018-04-16T02:02:56.166Z,99.90
2018-04-16T02:05:29.390Z,99.90
2018-04-16T02:08:01.913Z,99.90
2018-04-16T02:10:35.037Z,99.90
2018-04-16T02:13:08.610Z,99.90
2018-04-16T02:15:41.077Z,99.90
2018-04-16T02:18:13.974Z,99.90
2018-04-16T02:20:47.297Z,99.90
2018-04-16T02:23:19.613Z,99.90
2018-04-16T02:25:52.772Z,99.90
2018-04-16T02:28:25.507Z,99.90
2018-04-16T02:30:58.092Z,99.90
2018-04-16T02:33:31.022Z,99.90
2018-04-16T02:36:03.683Z,99.90
2018-04-16T02:38:36.113Z,99.90
2018-04-16T02:41:10.068Z,99.90
2018-04-16T02:43:42.931Z,99.90
2018-04-16T02:49:18.503Z,99.90
2018-04-16T02:51:51.713Z,99.90
2018-04-16T02:54:24.263Z,99.90
2018-04-16T02:56:57.375Z,99.90
2018-04-16T02:59:30.438Z,99.90
2018-04-16T03:02:02.892Z,99.90
2018-04-16T03:04:35.764Z,99.90
2018-04-16T03:07:19.146Z,99.90
2018-04-16T03:09:52.595Z,99.90
2018-04-16T03:12:24.964Z,99.90
2018-04-16T03:14:57.532Z,99.90
2018-04-16T03:17:30.077Z,99.90
2018-04-16T03:20:03.276Z,99.90
2018-04-16T03:22:36.368Z,99.90
2018-04-16T03:25:09.148Z,99.90
2018-04-16T03:27:41.724Z,99.90
2018-04-16T03:30:14.374Z,99.90
2018-04-16T03:32:47.748Z,99.90
2018-04-16T03:35:20.423Z,99.90
2018-04-16T03:37:53.114Z,99.90
2018-04-16T03:40:25.714Z,99.90
2018-04-16T03:42:58.256Z,99.90
2018-04-16T03:45:31.180Z,99.90
2018-04-16T03:48:03.699Z,99.90
2018-04-16T03:50:36.154Z,99.90
2018-04-16T03:53:08.686Z,99.90
2018-04-16T03:55:52.336Z,99.90
2018-04-16T03:58:18.849Z,99.90
2018-04-16T04:00:45.534Z,99.90
2018-04-16T04:03:12.083Z,99.90
2018-04-16T04:05:38.514Z,99.90
2018-04-16T04:08:05.007Z,99.90
2018-04-16T04:10:31.970Z,99.90
2018-04-16T04:12:58.441Z,99.90
2018-04-16T04:15:25.049Z,99.90
2018-04-16T04:17:52.297Z,99.90
2018-04-16T04:20:19.527Z,99.90
2018-04-16T04:22:58.673Z,99.90
2018-04-16T04:25:37.429Z,99.90
2018-04-16T04:28:16.443Z,99.90
2018-04-16T04:30:42.912Z,99.90
2018-04-16T04:33:09.366Z,99.90
2018-04-16T04:35:35.944Z,99.90
2018-04-16T04:38:02.563Z,99.90
2018-04-16T04:40:28.944Z,99.90
2018-04-16T04:42:55.549Z,99.90
2018-04-16T04:45:22.084Z,99.90
2018-04-16T04:47:48.553Z,99.90
2018-04-16T04:50:15.206Z,99.90
2018-04-16T04:52:42.579Z,99.90
2018-04-16T04:55:09.036Z,99.90
2018-04-16T04:57:35.884Z,99.90
2018-04-16T05:00:03.129Z,99.90
2018-04-16T05:02:29.607Z,99.90
2018-04-16T05:04:56.161Z,99.90
2018-04-16T05:07:22.712Z,99.90
2018-04-16T05:09:49.270Z,99.90
2018-04-16T05:12:16.235Z,99.90
2018-04-16T05:14:42.740Z,99.90
2018-04-16T05:17:09.234Z,99.90
2018-04-16T05:19:36.282Z,99.90
2018-04-16T05:22:02.752Z,99.90
2018-04-16T05:24:29.167Z,99.90
2018-04-16T05:26:55.665Z,99.90
2018-04-16T05:29:22.265Z,99.90
2018-04-16T05:31:49.453Z,99.90
2018-04-16T05:34:16.448Z,99.90
2018-04-16T05:36:42.995Z,99.90
2018-04-16T05:39:09.471Z,99.90
2018-04-16T05:41:37.187Z,99.90
2018-04-16T05:44:03.670Z,99.90
2018-04-16T05:46:30.899Z,99.90
2018-04-16T05:48:57.472Z,99.90
2018-04-16T05:51:24.026Z,99.90
2018-04-16T05:53:50.594Z,99.90
2018-04-16T05:56:17.823Z,99.90
2018-04-16T05:58:44.372Z,99.90
2018-04-16T06:01:10.933Z,99.90
2018-04-16T06:03:37.449Z,99.90
2018-04-16T06:06:04.769Z,99.90
2018-04-16T06:08:31.409Z,99.90
2018-04-16T06:10:58.148Z,99.90
2018-04-16T06:13:24.667Z,99.90
2018-04-16T06:15:51.282Z,99.90
2018-04-16T06:18:18.088Z,99.90
2018-04-16T06:20:44.743Z,99.90
2018-04-16T06:23:12.141Z,99.90
2018-04-16T06:25:39.844Z,99.90
2018-04-16T06:28:06.377Z,99.90
2018-04-16T06:30:32.873Z,99.90
2018-04-16T06:32:59.527Z,99.90
2018-04-16T06:35:26.764Z,99.90
2018-04-16T06:37:54.023Z,99.90
2018-04-16T06:40:21.105Z,99.90
2018-04-16T06:42:47.656Z,99.90
2018-04-16T06:45:14.242Z,99.90
2018-04-16T06:47:40.884Z,99.90
2018-04-16T06:50:08.324Z,99.90
2018-04-16T06:52:34.810Z,99.90
2018-04-16T06:55:01.789Z,99.90
2018-04-16T06:57:29.031Z,99.90
2018-04-16T06:59:55.516Z,99.90
2018-04-16T07:02:22.795Z,99.90
2018-04-16T07:04:49.459Z,99.90
2018-04-16T07:07:15.886Z,99.90
2018-04-16T07:09:43.458Z,99.90
2018-04-16T07:12:10.275Z,99.90
2018-04-16T07:14:36.890Z,99.40
2018-04-16T07:17:03.517Z,99.40
2018-04-16T07:19:30.060Z,99.10
2018-04-16T07:21:56.624Z,99.60
2018-04-16T07:24:23.836Z,99.40
2018-04-16T07:26:51.033Z,99.00
2018-04-16T07:29:17.609Z,99.00
2018-04-16T07:31:44.176Z,99.20
2018-04-16T07:34:10.824Z,99.00
2018-04-16T07:36:37.229Z,99.00
2018-04-16T07:39:05.696Z,98.60
2018-04-16T07:41:32.998Z,98.50
2018-04-16T07:43:59.453Z,98.50
2018-04-16T07:46:26.180Z,98.50
2018-04-16T07:48:52.643Z,98.40
2018-04-16T07:51:19.162Z,98.30
2018-04-16T07:53:46.474Z,98.20
2018-04-16T07:56:13.510Z,98.30
2018-04-16T07:58:40.796Z,97.60
2018-04-16T08:01:07.630Z,97.60
2018-04-16T08:03:34.150Z,97.80
2018-04-16T08:06:00.644Z,97.70
2018-04-16T08:08:28.191Z,97.80
2018-04-16T08:10:54.689Z,97.80
2018-04-16T08:13:21.291Z,97.90
2018-04-16T08:15:47.878Z,97.90
2018-04-16T08:18:14.406Z,97.80
2018-04-16T08:20:41.704Z,97.80
2018-04-16T08:23:08.323Z,97.70
2018-04-16T08:25:35.532Z,97.30
2018-04-16T08:28:03.001Z,97.10
2018-04-16T08:30:29.950Z,97.10
2018-04-16T08:32:56.546Z,96.80
2018-04-16T08:35:23.175Z,96.80
2018-04-16T08:37:50.616Z,97.50
2018-04-16T08:40:17.350Z,97.50
2018-04-16T08:42:44.576Z,96.80
2018-04-16T08:45:11.453Z,96.80
2018-04-16T08:47:37.980Z,96.60
2018-04-16T08:50:04.455Z,96.60
2018-04-16T08:52:30.936Z,96.00
2018-04-16T08:54:57.474Z,96.30
2018-04-16T08:57:23.918Z,95.80
2018-04-16T08:59:50.497Z,95.70
2018-04-16T09:02:18.263Z,95.60
2018-04-16T09:04:44.970Z,95.60
2018-04-16T09:07:11.602Z,95.50
2018-04-16T09:09:38.193Z,95.20
2018-04-16T09:12:04.783Z,94.90
2018-04-16T09:14:31.801Z,95.10
2018-04-16T09:16:58.808Z,95.10
2018-04-16T09:19:25.614Z,94.90
2018-04-16T09:21:52.943Z,94.30
2018-04-16T09:24:19.468Z,94.20
2018-04-16T09:26:46.832Z,94.90
2018-04-16T09:29:13.718Z,94.90
2018-04-16T09:31:40.804Z,95.10
2018-04-16T09:34:07.601Z,95.10
2018-04-16T09:36:34.384Z,95.30
2018-04-16T09:39:02.830Z,95.60
2018-04-16T09:41:30.952Z,95.50
2018-04-16T09:43:58.255Z,96.20
2018-04-16T09:46:24.748Z,95.80
2018-04-16T09:48:54.187Z,95.10
2018-04-16T09:51:20.847Z,94.50
2018-04-16T09:53:47.487Z,94.70
2018-04-16T09:56:14.161Z,94.80
2018-04-16T09:58:41.061Z,95.00
2018-04-16T10:01:14.392Z,94.00
2018-04-16T10:03:41.472Z,94.00
2018-04-16T10:06:08.079Z,94.00
2018-04-16T10:08:36.031Z,93.70
2018-04-16T10:11:02.591Z,93.60
2018-04-16T10:13:30.058Z,93.10
2018-04-16T10:15:57.011Z,93.10
2018-04-16T10:18:24.567Z,92.60
2018-04-16T10:20:52.159Z,92.40
2018-04-16T10:23:18.913Z,92.20
2018-04-16T10:25:45.737Z,92.20
2018-04-16T10:28:13.224Z,92.30
2018-04-16T10:30:40.629Z,92.10
2018-04-16T10:33:08.045Z,91.00
2018-04-16T10:35:34.640Z,91.00
2018-04-16T10:38:01.186Z,91.10
2018-04-16T10:40:27.796Z,91.20
2018-04-16T10:42:55.090Z,90.20
2018-04-16T10:45:21.728Z,90.20
2018-04-16T10:47:48.990Z,87.80
2018-04-16T10:50:15.607Z,84.40
2018-04-16T10:52:42.207Z,84.20
2018-04-16T10:55:08.846Z,82.90
2018-04-16T10:57:36.110Z,85.00
2018-04-16T11:00:03.392Z,85.20
2018-04-16T11:02:29.971Z,85.20
2018-04-16T11:04:56.520Z,82.40
2018-04-16T11:07:22.996Z,79.50
2018-04-16T11:09:49.608Z,75.40
2018-04-16T11:12:16.162Z,74.80
2018-04-16T11:14:43.873Z,74.20
2018-04-16T11:17:10.551Z,74.60
2018-04-16T11:19:37.284Z,74.10
2018-04-16T11:22:04.523Z,70.60
2018-04-16T11:24:31.517Z,70.50
2018-04-16T11:26:58.104Z,70.40
2018-04-16T11:29:24.894Z,70.50
2018-04-16T11:31:51.586Z,70.70
2018-04-16T11:34:18.863Z,70.20
2018-04-16T11:36:46.113Z,69.80
2018-04-16T11:39:13.377Z,69.60
2018-04-16T11:41:40.018Z,69.40
2018-04-16T11:44:07.048Z,69.60
2018-04-16T11:46:34.392Z,70.00
2018-04-16T11:49:01.911Z,69.80
2018-04-16T11:51:29.335Z,70.10
2018-04-16T11:53:56.049Z,70.00
2018-04-16T11:56:23.466Z,74.00
2018-04-16T11:58:50.244Z,74.00
2018-04-16T12:01:17.632Z,73.10
2018-04-16T12:03:44.939Z,72.90
2018-04-16T12:06:11.468Z,72.90
2018-04-16T12:08:37.902Z,73.40
2018-04-16T12:11:04.555Z,72.30
2018-04-16T12:13:31.169Z,72.20
2018-04-16T12:15:57.721Z,73.20
2018-04-16T12:18:24.428Z,74.30
2018-04-16T12:20:51.080Z,74.70
2018-04-16T12:23:17.839Z,76.20
2018-04-16T12:25:44.612Z,78.00
2018-04-16T12:28:12.652Z,82.00
2018-04-16T12:30:39.561Z,82.00
2018-04-16T12:33:06.631Z,81.10
2018-04-16T12:35:33.647Z,80.40
2018-04-16T12:38:01.173Z,79.80
2018-04-16T12:40:27.843Z,80.10
2018-04-16T12:42:55.339Z,80.20
2018-04-16T12:45:22.531Z,80.20
2018-04-16T12:47:49.224Z,79.80
2018-04-16T12:50:15.860Z,80.60
2018-04-16T12:52:42.342Z,78.80
2018-04-16T12:55:08.989Z,78.10
2018-04-16T12:57:36.160Z,74.00
2018-04-16T13:00:02.634Z,74.00
2018-04-16T13:02:29.684Z,73.60
2018-04-16T13:04:56.211Z,72.50
2018-04-16T13:07:22.868Z,72.40
2018-04-16T13:09:49.370Z,71.40
2018-04-16T13:12:15.944Z,71.10
2018-04-16T13:14:43.455Z,71.60
2018-04-16T13:17:10.165Z,71.30
2018-04-16T13:19:36.705Z,72.10
2018-04-16T13:22:03.955Z,76.70
2018-04-16T13:24:30.853Z,76.70
2018-04-16T13:26:57.331Z,78.20
2018-04-16T13:29:23.861Z,79.20
2018-04-16T13:31:50.888Z,80.00
2018-04-16T13:34:17.470Z,80.40
2018-04-16T13:36:44.783Z,80.20
2018-04-16T13:39:11.521Z,80.10
2018-04-16T13:41:38.217Z,79.20
2018-04-16T13:44:04.743Z,78.20
2018-04-16T13:46:31.633Z,76.20
2018-04-16T13:48:58.160Z,75.60
2018-04-16T13:51:25.434Z,73.00
2018-04-16T13:53:51.993Z,72.90
2018-04-16T13:56:18.427Z,71.30
2018-04-16T13:58:45.134Z,70.50
2018-04-16T14:01:11.803Z,67.90
2018-04-16T14:03:38.953Z,65.00
2018-04-16T14:06:06.259Z,62.40
2018-04-16T14:08:33.264Z,62.20
2018-04-16T14:11:00.559Z,60.60
2018-04-16T14:13:27.021Z,60.60
2018-04-16T14:15:53.676Z,57.50
2018-04-16T14:18:20.469Z,56.60
2018-04-16T14:20:47.062Z,55.50
2018-04-16T14:23:13.720Z,55.50
2018-04-16T14:25:41.756Z,55.70
2018-04-16T14:28:08.301Z,55.60
2018-04-16T14:30:34.922Z,55.30
2018-04-16T14:33:02.376Z,55.00
2018-04-16T14:35:29.010Z,54.70
2018-04-16T14:37:55.753Z,53.90
2018-04-16T14:40:22.381Z,53.20
2018-04-16T14:42:48.990Z,53.10
2018-04-16T14:45:15.735Z,51.60
2018-04-16T14:47:42.194Z,51.00
2018-04-16T14:50:08.672Z,51.10
2018-04-16T14:52:35.166Z,51.20
2018-04-16T14:55:02.352Z,50.20
2018-04-16T14:57:29.000Z,50.30
2018-04-16T14:59:56.186Z,47.90
2018-04-16T15:02:23.441Z,49.10
2018-04-16T15:04:50.968Z,49.00
2018-04-16T15:07:17.537Z,49.60
2018-04-16T15:09:43.989Z,49.80
2018-04-16T15:12:12.072Z,49.10
2018-04-16T15:14:38.671Z,49.10
2018-04-16T15:17:05.252Z,48.70
2018-04-16T15:19:31.777Z,49.10
2018-04-16T15:21:59.329Z,48.70
2018-04-16T15:24:25.814Z,48.20
2018-04-16T15:26:53.206Z,49.70
2018-04-16T15:29:19.807Z,49.60
2018-04-16T15:31:47.649Z,51.10
2018-04-16T15:34:14.736Z,51.10
2018-04-16T15:36:42.138Z,51.30
2018-04-16T15:39:08.661Z,51.30
2018-04-16T15:41:35.289Z,49.90
2018-04-16T15:44:01.831Z,49.90
2018-04-16T15:46:28.300Z,50.90
2018-04-16T15:48:54.888Z,51.20
2018-04-16T15:51:21.727Z,51.50
2018-04-16T15:53:48.386Z,49.30
2018-04-16T15:56:14.953Z,48.80
2018-04-16T15:58:41.806Z,48.50
2018-04-16T16:01:09.223Z,48.40
2018-04-16T16:03:35.806Z,48.70
2018-04-16T16:06:03.357Z,49.10
2018-04-16T16:08:31.311Z,50.70
2018-04-16T16:10:57.785Z,50.70
2018-04-16T16:13:24.675Z,50.70
2018-04-16T16:15:51.227Z,51.20
2018-04-16T16:18:17.748Z,51.50
2018-04-16T16:20:44.342Z,51.40
2018-04-16T16:23:11.036Z,52.30
2018-04-16T16:25:38.435Z,52.70
2018-04-16T16:28:06.168Z,52.30
2018-04-16T16:30:32.674Z,52.20
2018-04-16T16:32:59.114Z,52.00
2018-04-16T16:35:25.755Z,51.40
2018-04-16T16:37:52.229Z,51.40
2018-04-16T16:40:18.843Z,51.80
2018-04-16T16:42:45.498Z,52.00
2018-04-16T16:45:12.012Z,52.30
2018-04-16T16:47:38.638Z,52.10
2018-04-16T16:50:05.636Z,52.70
2018-04-16T16:52:32.867Z,54.20
2018-04-16T16:54:59.341Z,54.10
2018-04-16T16:57:26.774Z,55.00
2018-04-16T16:59:53.253Z,55.90
2018-04-16T17:02:19.764Z,56.10
2018-04-16T17:04:46.476Z,56.40
2018-04-16T17:07:12.897Z,57.40
2018-04-16T17:09:39.337Z,58.10
2018-04-16T17:12:05.924Z,58.80
2018-04-16T17:14:32.357Z,59.10
2018-04-16T17:16:58.755Z,59.40
2018-04-16T17:19:25.653Z,59.70
2018-04-16T17:21:52.101Z,59.80
2018-04-16T17:24:18.522Z,59.70
2018-04-16T17:26:45.281Z,60.30
2018-04-16T17:29:12.462Z,61.60
2018-04-16T17:31:39.799Z,61.70
2018-04-16T17:34:06.539Z,61.60
2018-04-16T17:36:33.168Z,61.20
2018-04-16T17:38:59.711Z,61.10
2018-04-16T17:41:26.329Z,61.20
2018-04-16T17:43:52.805Z,61.60
2018-04-16T17:46:19.309Z,61.50
2018-04-16T17:48:45.914Z,62.50
2018-04-16T17:51:12.452Z,62.90
2018-04-16T17:53:38.922Z,63.70
2018-04-16T17:56:05.484Z,63.70
2018-04-16T17:58:31.926Z,64.20
2018-04-16T18:00:59.140Z,64.80
2018-04-16T18:03:26.017Z,64.80
2018-04-16T18:05:52.492Z,65.20
2018-04-16T18:08:18.939Z,65.50
2018-04-16T18:10:46.543Z,64.90
2018-04-16T18:13:12.976Z,64.90
2018-04-16T18:15:40.236Z,64.70
2018-04-16T18:18:07.657Z,64.80
2018-04-16T18:20:34.093Z,64.70
2018-04-16T18:23:00.589Z,65.70
2018-04-16T18:25:27.315Z,64.80
2018-04-16T18:27:56.182Z,64.90
2018-04-16T18:30:22.709Z,64.90
2018-04-16T18:32:49.589Z,64.70
2018-04-16T18:35:16.112Z,64.70
2018-04-16T18:37:42.691Z,64.60
2018-04-16T18:40:09.433Z,64.60
2018-04-16T18:42:35.990Z,65.30
2018-04-16T18:45:02.600Z,65.50
2018-04-16T18:47:29.240Z,66.10
2018-04-16T18:49:56.553Z,73.00
2018-04-16T18:52:22.977Z,73.00
2018-04-16T18:54:49.551Z,76.80
2018-04-16T18:57:15.978Z,80.40
2018-04-16T18:59:42.538Z,85.00
2018-04-16T19:02:09.365Z,89.00
2018-04-16T19:04:35.911Z,90.60
2018-04-16T19:07:02.421Z,91.40
2018-04-16T19:09:29.357Z,92.70
2018-04-16T19:11:56.725Z,93.60
2018-04-16T19:14:23.344Z,93.60
2018-04-16T19:16:51.228Z,94.80
2018-04-16T19:19:17.852Z,95.10
2018-04-16T19:21:50.257Z,95.50
2018-04-16T19:24:24.040Z,95.80
2018-04-16T19:26:56.573Z,96.20
2018-04-16T19:29:23.217Z,96.30
2018-04-16T19:31:50.015Z,96.50
2018-04-16T19:34:23.046Z,96.90
2018-04-16T19:36:49.718Z,96.90
2018-04-16T19:39:16.368Z,96.90
2018-04-16T19:41:49.677Z,97.30
2018-04-16T19:44:16.212Z,97.30
2018-04-16T19:46:42.831Z,97.60
2018-04-16T19:49:15.399Z,97.90
2018-04-16T19:51:41.999Z,97.90
2018-04-16T19:54:08.494Z,98.30
2018-04-16T19:56:42.109Z,98.50
2018-04-16T19:59:08.563Z,98.50
2018-04-16T20:01:35.008Z,98.70
2018-04-16T20:04:01.562Z,98.80
2018-04-16T20:06:28.036Z,99.10
2018-04-16T20:08:54.483Z,99.20
2018-04-16T20:11:21.458Z,99.20
2018-04-16T20:13:48.634Z,99.50
2018-04-16T20:16:15.110Z,99.50
2018-04-16T20:18:41.780Z,99.60
2018-04-16T20:21:08.285Z,99.60
2018-04-16T20:23:34.767Z,99.70
2018-04-16T20:26:01.599Z,99.70
2018-04-16T20:28:29.057Z,99.90
2018-04-16T20:30:55.605Z,99.90
2018-04-16T20:33:22.106Z,99.90
2018-04-16T20:35:48.636Z,99.90
2018-04-16T20:38:15.091Z,99.90
2018-04-16T20:40:41.843Z,99.90
2018-04-16T20:43:08.314Z,99.90
2018-04-16T20:45:35.671Z,99.90
2018-04-16T20:48:02.176Z,99.90
2018-04-16T20:50:29.378Z,99.90
2018-04-16T20:52:55.861Z,99.90
2018-04-16T20:55:22.953Z,99.90
2018-04-16T20:57:50.142Z,99.90
2018-04-16T21:00:17.688Z,99.90
2018-04-16T21:02:44.410Z,99.90
2018-04-16T21:05:10.937Z,99.90
2018-04-16T21:07:38.117Z,99.90
2018-04-16T21:10:04.704Z,99.90
2018-04-16T21:12:31.917Z,99.90
2018-04-16T21:14:58.494Z,99.90
2018-04-16T21:17:25.028Z,99.90
2018-04-16T21:19:51.994Z,99.90
2018-04-16T21:22:19.350Z,99.90
2018-04-16T21:24:46.704Z,99.90
2018-04-16T21:27:13.183Z,99.90
2018-04-16T21:29:41.414Z,99.90
2018-04-16T21:32:08.919Z,99.90
2018-04-16T21:34:35.460Z,99.90
2018-04-16T21:37:03.015Z,99.90
2018-04-16T21:39:29.545Z,99.90
2018-04-16T21:41:56.039Z,99.90
2018-04-16T21:44:23.281Z,99.90
2018-04-16T21:46:50.147Z,99.90
2018-04-16T21:49:16.645Z,99.90
2018-04-16T21:51:43.127Z,99.90
2018-04-16T21:54:09.604Z,99.90
2018-04-16T21:56:36.076Z,99.90
2018-04-16T21:59:04.013Z,99.90
2018-04-16T22:01:30.592Z,99.90
2018-04-16T22:03:57.062Z,99.90
2018-04-16T22:06:24.470Z,99.90
2018-04-16T22:08:51.193Z,99.90
2018-04-16T22:11:17.715Z,99.90
2018-04-16T22:13:44.436Z,99.90
2018-04-16T22:16:11.881Z,99.90
2018-04-16T22:18:38.427Z,99.90
2018-04-16T22:21:05.865Z,99.90
2018-04-16T22:23:32.913Z,99.90
2018-04-16T22:25:59.387Z,99.90
2018-04-16T22:28:25.880Z,99.90
2018-04-16T22:30:53.152Z,99.90
2018-04-16T22:33:19.736Z,99.90
2018-04-16T22:35:46.272Z,99.90
2018-04-16T22:38:13.285Z,99.90
2018-04-16T22:40:39.802Z,99.90
2018-04-16T22:43:06.242Z,99.90
2018-04-16T22:45:32.957Z,99.90
2018-04-16T22:48:00.213Z,99.90
2018-04-16T22:50:26.683Z,99.90
2018-04-16T22:52:53.513Z,99.90
2018-04-16T22:55:19.984Z,99.90
2018-04-16T22:57:47.301Z,99.90
2018-04-16T23:00:14.060Z,99.90
2018-04-16T23:02:41.351Z,99.90
2018-04-16T23:05:07.814Z,99.90
2018-04-16T23:07:34.606Z,99.90
2018-04-16T23:10:01.051Z,99.90
2018-04-16T23:12:27.508Z,99.90
2018-04-16T23:14:54.133Z,99.90
2018-04-16T23:17:21.465Z,99.90
2018-04-16T23:19:47.976Z,99.90
2018-04-16T23:22:14.537Z,99.90
2018-04-16T23:24:41.174Z,99.90
2018-04-16T23:27:07.700Z,99.90
2018-04-16T23:29:35.348Z,99.90
2018-04-16T23:32:01.952Z,99.90
2018-04-16T23:34:28.434Z,99.90
2018-04-16T23:36:55.371Z,99.90
2018-04-16T23:39:21.885Z,99.90
2018-04-16T23:41:48.454Z,99.90
2018-04-16T23:44:15.911Z,99.90
2018-04-16T23:46:42.485Z,99.90
2018-04-16T23:49:08.932Z,99.90
2018-04-16T23:51:35.461Z,99.90
2018-04-16T23:54:02.743Z,99.90
2018-04-16T23:56:29.179Z,99.90
2018-04-16T23:58:55.691Z,99.90
